createdAt,value
2023-03-20T00:02:15.670Z,9.90
2023-03-20T00:04:42.685Z,9.80
2023-03-20T00:07:12.508Z,9.90
2023-03-20T00:09:39.881Z,9.90
2023-03-20T00:12:07.262Z,9.90
2023-03-20T00:14:34.769Z,9.90
2023-03-20T00:17:02.088Z,9.90
2023-03-20T00:19:29.589Z,9.90
2023-03-20T00:21:57.882Z,9.80
2023-03-20T00:24:25.798Z,9.90
2023-03-20T00:26:53.871Z,9.90
2023-03-20T00:29:30.696Z,9.90
2023-03-20T00:31:59.018Z,9.80
2023-03-20T00:34:29.646Z,9.70
2023-03-20T00:36:58.057Z,9.60
2023-03-20T00:39:25.094Z,9.70
2023-03-20T00:42:06.249Z,9.70
2023-03-20T00:44:42.103Z,9.70
2023-03-20T00:47:18.734Z,9.80
2023-03-20T00:49:49.940Z,9.70
2023-03-20T00:52:19.142Z,9.80
2023-03-20T00:54:46.419Z,9.80
2023-03-20T00:57:24.071Z,9.70
2023-03-20T01:00:19.641Z,9.70
2023-03-20T01:02:46.582Z,9.70
2023-03-20T01:05:14.554Z,9.70
2023-03-20T01:07:41.567Z,9.80
2023-03-20T01:10:11.620Z,9.80
2023-03-20T01:12:40.753Z,9.80
2023-03-20T01:15:20.752Z,9.70
2023-03-20T01:17:48.205Z,9.60
2023-03-20T01:20:24.267Z,9.70
2023-03-20T01:22:51.320Z,9.70
2023-03-20T01:25:18.625Z,9.70
2023-03-20T01:27:51.552Z,9.60
2023-03-20T01:30:26.395Z,9.70
2023-03-20T01:32:54.561Z,9.70
2023-03-20T01:35:27.667Z,9.70
2023-03-20T01:37:56.207Z,9.60
2023-03-20T01:40:32.982Z,9.70
2023-03-20T01:43:03.015Z,9.60
2023-03-20T01:45:36.073Z,9.60
2023-03-20T01:48:17.303Z,9.60
2023-03-20T01:50:44.273Z,9.70
2023-03-20T01:53:16.774Z,9.60
2023-03-20T01:55:45.834Z,9.50
2023-03-20T01:58:22.861Z,9.50
2023-03-20T02:00:49.926Z,9.50
2023-03-20T02:03:19.148Z,9.60
2023-03-20T02:05:46.585Z,9.60
2023-03-20T02:08:33.637Z,9.50
2023-03-20T02:11:02.570Z,9.60
2023-03-20T02:13:31.727Z,9.60
2023-03-20T02:16:07.398Z,9.50
2023-03-20T02:18:35.271Z,9.50
2023-03-20T02:21:27.117Z,9.60
2023-03-20T02:24:30.848Z,9.50
2023-03-20T02:27:56.266Z,9.60
2023-03-20T02:31:17.568Z,9.60
2023-03-20T02:33:56.769Z,9.50
2023-03-20T02:36:57.022Z,9.60
2023-03-20T02:39:48.518Z,9.60
2023-03-20T02:42:55.735Z,9.50
2023-03-20T02:45:28.960Z,9.50
2023-03-20T02:48:13.670Z,9.50
2023-03-20T02:51:16.269Z,9.50
2023-03-20T02:54:12.917Z,9.50
2023-03-20T02:57:08.595Z,9.50
2023-03-20T03:00:10.350Z,9.60
2023-03-20T03:02:47.437Z,9.60
2023-03-20T03:05:22.989Z,9.50
2023-03-20T03:07:54.618Z,9.40
2023-03-20T03:10:29.819Z,9.50
2023-03-20T03:12:58.977Z,9.50
2023-03-20T03:15:32.642Z,9.40
2023-03-20T03:18:02.145Z,9.40
2023-03-20T03:20:36.633Z,9.50
2023-03-20T03:23:05.791Z,9.40
2023-03-20T03:25:40.789Z,9.40
2023-03-20T03:28:32.529Z,9.40
2023-03-20T03:31:00.398Z,9.40
2023-03-20T03:33:35.951Z,9.50
2023-03-20T03:36:33.706Z,9.60
2023-03-20T03:39:15.496Z,9.60
2023-03-20T03:41:57.290Z,9.70
2023-03-20T03:45:13.892Z,9.60
2023-03-20T03:47:48.194Z,9.60
2023-03-20T03:50:21.381Z,9.60
2023-03-20T03:52:50.818Z,9.70
2023-03-20T03:55:26.611Z,9.70
2023-03-20T03:58:08.352Z,9.60
2023-03-20T04:00:37.479Z,9.40
2023-03-20T04:03:07.285Z,9.40
2023-03-20T04:05:38.259Z,9.30
2023-03-20T04:08:06.413Z,9.30
2023-03-20T04:10:33.635Z,9.30
2023-03-20T04:13:00.614Z,9.50
2023-03-20T04:15:27.916Z,9.40
2023-03-20T04:17:54.874Z,9.50
2023-03-20T04:20:21.926Z,9.40
2023-03-20T04:22:49.039Z,9.50
2023-03-20T04:25:20.370Z,9.50
2023-03-20T04:27:47.505Z,9.50
2023-03-20T04:30:14.755Z,9.40
2023-03-20T04:32:41.659Z,9.50
2023-03-20T04:35:09.394Z,9.50
2023-03-20T04:37:36.597Z,9.60
2023-03-20T04:40:04.573Z,9.60
2023-03-20T04:42:31.586Z,9.70
2023-03-20T04:44:58.490Z,9.60
2023-03-20T04:47:25.497Z,9.50
2023-03-20T04:49:52.462Z,9.60
2023-03-20T04:52:19.419Z,9.50
2023-03-20T04:54:46.379Z,9.60
2023-03-20T04:57:13.339Z,9.60
2023-03-20T04:59:40.310Z,9.60
2023-03-20T05:02:07.229Z,9.70
2023-03-20T05:04:34.215Z,9.60
2023-03-20T05:07:01.445Z,9.50
2023-03-20T05:09:28.349Z,9.60
2023-03-20T05:11:55.403Z,9.50
2023-03-20T05:14:22.387Z,9.50
2023-03-20T05:16:49.999Z,9.50
2023-03-20T05:19:16.970Z,9.60
2023-03-20T05:21:43.872Z,9.50
2023-03-20T05:24:11.041Z,9.40
2023-03-20T05:26:38.141Z,9.50
2023-03-20T05:29:05.320Z,9.50
2023-03-20T05:31:32.292Z,9.50
2023-03-20T05:33:59.375Z,9.60
2023-03-20T05:36:26.348Z,9.50
2023-03-20T05:38:53.270Z,9.50
2023-03-20T05:41:20.313Z,9.50
2023-03-20T05:43:47.265Z,9.50
2023-03-20T05:46:14.263Z,9.60
2023-03-20T05:48:41.200Z,9.50
2023-03-20T05:51:08.098Z,9.50
2023-03-20T05:53:35.069Z,9.60
2023-03-20T05:56:02.168Z,9.60
2023-03-20T05:58:29.125Z,9.70
2023-03-20T06:00:58.313Z,9.70
2023-03-20T06:03:25.571Z,9.80
2023-03-20T06:05:52.653Z,9.70
2023-03-20T06:08:19.528Z,9.70
2023-03-20T06:10:46.699Z,9.80
2023-03-20T06:13:13.663Z,9.90
2023-03-20T06:15:41.196Z,9.80
2023-03-20T06:18:08.137Z,9.70
2023-03-20T06:20:35.358Z,9.80
2023-03-20T06:23:02.249Z,9.70
2023-03-20T06:25:29.154Z,9.70
2023-03-20T06:27:56.047Z,9.70
2023-03-20T06:30:22.974Z,9.60
2023-03-20T06:32:49.979Z,9.60
2023-03-20T06:35:18.582Z,9.60
2023-03-20T06:37:45.535Z,9.60
2023-03-20T06:40:12.585Z,9.60
2023-03-20T06:42:39.605Z,9.70
2023-03-20T06:45:08.112Z,9.70
2023-03-20T06:47:35.425Z,9.80
2023-03-20T06:50:02.492Z,9.90
2023-03-20T06:52:29.546Z,9.80
2023-03-20T06:54:57.490Z,9.90
2023-03-20T06:57:24.585Z,9.80
2023-03-20T06:59:51.543Z,9.90
2023-03-20T07:02:18.725Z,9.80
2023-03-20T07:04:45.660Z,9.80
2023-03-20T07:07:12.755Z,9.80
2023-03-20T07:09:39.818Z,9.80
2023-03-20T07:12:15.560Z,9.80
2023-03-20T07:14:44.564Z,9.90
2023-03-20T07:17:12.582Z,9.80
2023-03-20T07:19:39.645Z,9.80
2023-03-20T07:22:09.315Z,9.80
2023-03-20T07:24:36.375Z,9.80
2023-03-20T07:27:03.351Z,9.90
2023-03-20T07:29:30.352Z,9.90
2023-03-20T07:31:57.355Z,10.00
2023-03-20T07:34:24.305Z,10.10
2023-03-20T07:36:51.779Z,10.10
2023-03-20T07:39:18.746Z,10.30
2023-03-20T07:41:45.609Z,10.30
2023-03-20T07:44:14.333Z,10.40
2023-03-20T07:46:41.589Z,10.40
2023-03-20T07:49:08.616Z,10.40
2023-03-20T07:51:35.735Z,10.20
2023-03-20T07:54:02.784Z,10.20
2023-03-20T07:56:29.722Z,10.20
2023-03-20T07:58:56.669Z,10.20
2023-03-20T08:01:23.721Z,10.20
2023-03-20T08:03:50.983Z,10.20
2023-03-20T08:06:18.268Z,10.20
2023-03-20T08:08:45.356Z,10.20
2023-03-20T08:11:12.738Z,10.20
2023-03-20T08:13:39.748Z,10.20
2023-03-20T08:16:07.308Z,10.20
2023-03-20T08:18:34.326Z,10.00
2023-03-20T08:21:01.694Z,10.10
2023-03-20T08:23:28.709Z,10.20
2023-03-20T08:25:55.661Z,10.20
2023-03-20T08:28:36.319Z,10.20
2023-03-20T08:31:10.655Z,10.20
2023-03-20T08:33:37.779Z,10.20
2023-03-20T08:36:05.283Z,10.10
2023-03-20T08:38:32.326Z,10.10
2023-03-20T08:40:59.886Z,10.10
2023-03-20T08:43:27.112Z,10.00
2023-03-20T08:45:54.812Z,10.00
2023-03-20T08:48:21.836Z,10.00
2023-03-20T08:50:48.858Z,10.10
2023-03-20T08:53:15.766Z,10.10
2023-03-20T08:55:51.589Z,10.20
2023-03-20T08:58:21.353Z,10.30
2023-03-20T09:00:48.593Z,10.30
2023-03-20T09:03:19.115Z,10.40
2023-03-20T09:05:49.385Z,10.40
2023-03-20T09:08:16.548Z,10.30
2023-03-20T09:10:43.524Z,10.30
2023-03-20T09:13:26.261Z,10.30
2023-03-20T09:15:55.800Z,10.40
2023-03-20T09:18:23.678Z,10.50
2023-03-20T09:20:51.499Z,10.50
2023-03-20T09:23:19.076Z,10.50
2023-03-20T09:25:47.793Z,10.50
2023-03-20T09:28:14.906Z,10.70
2023-03-20T09:30:43.567Z,10.80
2023-03-20T09:33:11.471Z,11.00
2023-03-20T09:35:38.793Z,11.10
2023-03-20T09:38:06.765Z,11.20
2023-03-20T09:41:02.560Z,11.40
2023-03-20T09:43:42.886Z,11.40
2023-03-20T09:46:51.877Z,11.40
2023-03-20T09:50:06.567Z,11.70
2023-03-20T09:53:33.554Z,12.00
2023-03-20T09:56:00.702Z,12.00
2023-03-20T09:58:36.103Z,11.70
2023-03-20T10:01:06.661Z,11.70
2023-03-20T10:03:44.038Z,12.00
2023-03-20T10:06:16.858Z,12.10
2023-03-20T10:08:45.684Z,12.10
2023-03-20T10:11:28.400Z,12.00
2023-03-20T10:14:29.844Z,12.30
2023-03-20T10:17:33.795Z,12.60
2023-03-20T10:20:38.314Z,13.20
2023-03-20T10:23:27.425Z,13.60
2023-03-20T10:26:10.174Z,13.50
2023-03-20T10:28:43.427Z,13.90
2023-03-20T10:31:42.452Z,13.80
2023-03-20T10:34:29.499Z,13.70
2023-03-20T10:37:34.138Z,14.10
2023-03-20T10:40:36.669Z,14.30
2023-03-20T10:43:11.666Z,13.80
2023-03-20T10:45:48.334Z,13.70
2023-03-20T10:48:26.163Z,13.60
2023-03-20T10:51:02.039Z,13.40
2023-03-20T10:53:30.866Z,13.30
2023-03-20T10:56:05.925Z,13.30
2023-03-20T10:58:40.507Z,13.70
2023-03-20T11:01:08.114Z,13.90
2023-03-20T11:03:39.598Z,13.80
2023-03-20T11:06:20.609Z,13.60
2023-03-20T11:08:53.197Z,13.80
2023-03-20T11:11:26.601Z,13.90
2023-03-20T11:13:54.398Z,14.40
2023-03-20T11:16:31.706Z,14.70
2023-03-20T11:19:08.450Z,15.00
2023-03-20T11:21:46.890Z,14.80
2023-03-20T11:24:41.623Z,14.60
2023-03-20T11:27:18.013Z,14.50
2023-03-20T11:29:49.173Z,14.50
2023-03-20T11:32:35.209Z,14.50
2023-03-20T11:35:27.026Z,14.20
2023-03-20T11:38:07.161Z,14.20
2023-03-20T11:40:35.209Z,14.10
2023-03-20T11:43:02.203Z,14.40
2023-03-20T11:45:40.145Z,14.50
2023-03-20T11:48:19.888Z,14.80
2023-03-20T11:51:07.353Z,15.00
2023-03-20T11:53:40.679Z,14.90
2023-03-20T11:56:20.864Z,14.80
2023-03-20T11:59:02.142Z,15.10
2023-03-20T12:01:39.007Z,15.30
2023-03-20T12:04:11.951Z,15.30
2023-03-20T12:07:04.036Z,15.20
2023-03-20T12:09:36.382Z,15.30
2023-03-20T12:12:12.039Z,15.50
2023-03-20T12:14:55.910Z,15.60
2023-03-20T12:17:38.660Z,15.20
2023-03-20T12:20:17.512Z,15.50
2023-03-20T12:23:08.778Z,15.60
2023-03-20T12:25:52.391Z,15.40
2023-03-20T12:28:34.864Z,15.60
2023-03-20T12:31:15.250Z,15.70
2023-03-20T12:33:58.820Z,15.90
2023-03-20T12:36:46.289Z,16.10
2023-03-20T12:39:17.664Z,15.90
2023-03-20T12:42:10.244Z,15.10
2023-03-20T12:45:04.284Z,15.20
2023-03-20T12:47:54.344Z,15.20
2023-03-20T12:50:37.481Z,15.30
2023-03-20T12:53:34.884Z,15.00
2023-03-20T12:56:29.021Z,15.00
2023-03-20T12:59:07.817Z,15.10
2023-03-20T13:01:53.423Z,14.90
2023-03-20T13:04:27.718Z,15.00
2023-03-20T13:07:04.234Z,14.90
2023-03-20T13:09:58.835Z,14.90
2023-03-20T13:12:25.651Z,14.90
2023-03-20T13:15:30.943Z,15.00
2023-03-20T13:18:00.834Z,14.80
2023-03-20T13:20:42.496Z,14.80
2023-03-20T13:23:47.692Z,15.10
2023-03-20T13:26:17.409Z,15.40
2023-03-20T13:29:08.663Z,15.20
2023-03-20T13:32:20.236Z,15.30
2023-03-20T13:34:54.316Z,15.40
2023-03-20T13:37:46.448Z,15.20
2023-03-20T13:40:23.819Z,15.00
2023-03-20T13:43:12.238Z,15.10
2023-03-20T13:45:42.015Z,15.10
2023-03-20T13:48:17.694Z,14.90
2023-03-20T13:51:06.841Z,14.90
2023-03-20T13:54:01.706Z,14.70
2023-03-20T13:56:49.680Z,14.90
2023-03-20T13:59:42.875Z,14.80
2023-03-20T14:02:45.445Z,14.80
2023-03-20T14:05:19.378Z,14.60
2023-03-20T14:07:49.594Z,14.60
2023-03-20T14:10:22.900Z,14.50
2023-03-20T14:13:05.197Z,14.60
2023-03-20T14:15:36.812Z,14.50
2023-03-20T14:18:06.779Z,14.50
2023-03-20T14:20:44.762Z,14.70
2023-03-20T14:23:21.496Z,14.80
2023-03-20T14:25:49.557Z,14.70
2023-03-20T14:28:19.078Z,14.50
2023-03-20T14:30:50.066Z,14.50
2023-03-20T14:33:17.133Z,14.50
2023-03-20T14:36:15.353Z,14.50
2023-03-20T14:38:54.873Z,14.20
2023-03-20T14:41:41.699Z,14.20
2023-03-20T14:44:08.564Z,14.30
2023-03-20T14:46:44.065Z,14.30
2023-03-20T14:49:50.166Z,14.30
2023-03-20T14:52:42.602Z,14.40
2023-03-20T14:55:22.309Z,14.50
2023-03-20T14:57:56.696Z,14.50
2023-03-20T15:00:34.812Z,14.30
2023-03-20T15:03:09.671Z,14.30
2023-03-20T15:05:39.573Z,14.30
2023-03-20T15:08:08.980Z,14.20
2023-03-20T15:10:45.861Z,14.20
2023-03-20T15:13:15.366Z,14.10
2023-03-20T15:15:54.597Z,14.10
2023-03-20T15:18:24.481Z,14.00
2023-03-20T15:20:51.728Z,14.00
2023-03-20T15:23:18.721Z,13.90
2023-03-20T15:25:48.053Z,13.70
2023-03-20T15:28:27.464Z,13.70
2023-03-20T15:30:58.778Z,13.70
2023-03-20T15:33:34.950Z,13.60
2023-03-20T15:36:22.859Z,13.70
2023-03-20T15:38:50.744Z,13.70
2023-03-20T15:41:36.328Z,13.70
2023-03-20T15:44:28.388Z,13.70
2023-03-20T15:46:59.866Z,13.60
2023-03-20T15:49:29.214Z,13.60
2023-03-20T15:52:00.956Z,13.50
2023-03-20T15:54:28.392Z,13.50
2023-03-20T15:57:00.548Z,13.60
2023-03-20T15:59:31.815Z,13.50
2023-03-20T16:02:00.888Z,13.50
2023-03-20T16:04:28.795Z,13.50
2023-03-20T16:06:59.012Z,13.50
2023-03-20T16:09:27.530Z,13.50
2023-03-20T16:12:01.320Z,13.40
2023-03-20T16:14:32.282Z,13.50
2023-03-20T16:17:01.950Z,13.40
2023-03-20T16:19:29.542Z,13.40
2023-03-20T16:22:02.702Z,13.40
2023-03-20T16:24:38.521Z,13.40
2023-03-20T16:27:10.037Z,13.30
2023-03-20T16:29:43.257Z,13.20
2023-03-20T16:32:32.269Z,13.20
2023-03-20T16:35:01.422Z,13.10
2023-03-20T16:37:38.980Z,13.10
2023-03-20T16:40:15.697Z,13.00
2023-03-20T16:42:43.766Z,13.00
2023-03-20T16:45:32.986Z,13.00
2023-03-20T16:48:11.836Z,13.00
2023-03-20T16:50:59.058Z,12.90
2023-03-20T16:53:31.754Z,12.90
2023-03-20T16:55:59.239Z,12.90
2023-03-20T16:58:32.542Z,12.80
2023-03-20T17:01:07.832Z,12.70
2023-03-20T17:03:39.962Z,12.60
2023-03-20T17:06:47.886Z,12.70
2023-03-20T17:09:33.485Z,12.50
2023-03-20T17:12:16.157Z,12.50
2023-03-20T17:14:45.209Z,12.50
2023-03-20T17:17:14.281Z,12.40
2023-03-20T17:19:41.465Z,12.30
2023-03-20T17:22:22.108Z,12.30
2023-03-20T17:24:51.427Z,12.30
2023-03-20T17:27:19.810Z,12.30
2023-03-20T17:29:51.250Z,12.20
2023-03-20T17:32:23.920Z,12.20
2023-03-20T17:34:51.528Z,12.10
2023-03-20T17:37:27.079Z,12.10
2023-03-20T17:39:55.447Z,12.10
2023-03-20T17:42:26.776Z,12.00
2023-03-20T17:44:53.850Z,12.10
2023-03-20T17:47:24.813Z,12.10
2023-03-20T17:49:54.392Z,12.10
2023-03-20T17:52:27.651Z,12.10
2023-03-20T17:54:55.197Z,12.00
2023-03-20T17:57:31.668Z,12.00
2023-03-20T17:59:59.692Z,11.90
2023-03-20T18:02:26.816Z,11.90
2023-03-20T18:04:54.123Z,11.90
2023-03-20T18:07:21.340Z,11.80
2023-03-20T18:09:49.261Z,11.70
2023-03-20T18:12:18.645Z,11.70
2023-03-20T18:14:46.821Z,11.60
2023-03-20T18:17:15.414Z,11.60
2023-03-20T18:19:44.401Z,11.50
2023-03-20T18:22:11.739Z,11.50
2023-03-20T18:24:42.759Z,11.40
2023-03-20T18:27:11.848Z,11.40
2023-03-20T18:29:38.740Z,11.30
2023-03-20T18:32:05.761Z,11.20
2023-03-20T18:34:33.361Z,11.10
2023-03-20T18:37:03.142Z,11.20
2023-03-20T18:39:30.424Z,11.00
2023-03-20T18:41:57.396Z,11.00
2023-03-20T18:44:25.436Z,11.00
2023-03-20T18:46:52.376Z,11.10
2023-03-20T18:49:20.302Z,11.30
2023-03-20T18:51:49.724Z,11.20
2023-03-20T18:54:16.656Z,11.30
2023-03-20T18:56:44.655Z,11.30
2023-03-20T18:59:13.264Z,11.30
2023-03-20T19:01:40.294Z,11.30
2023-03-20T19:04:07.389Z,11.30
2023-03-20T19:06:34.542Z,11.30
2023-03-20T19:09:05.172Z,11.30
2023-03-20T19:11:32.455Z,11.20
2023-03-20T19:13:59.546Z,11.20
2023-03-20T19:16:31.568Z,11.30
2023-03-20T19:19:01.591Z,11.30
2023-03-20T19:21:30.740Z,11.40
2023-03-20T19:24:00.614Z,11.40
2023-03-20T19:26:30.892Z,11.40
2023-03-20T19:29:00.992Z,11.40
2023-03-20T19:31:29.667Z,11.40
2023-03-20T19:33:56.912Z,11.30
2023-03-20T19:36:34.531Z,11.40
2023-03-20T19:39:04.311Z,11.40
2023-03-20T19:41:32.463Z,11.50
2023-03-20T19:44:01.341Z,11.50
2023-03-20T19:46:39.773Z,11.40
2023-03-20T19:49:20.444Z,11.40
2023-03-20T19:51:48.378Z,11.30
2023-03-20T19:54:15.826Z,11.30
2023-03-20T19:56:42.885Z,11.20
2023-03-20T19:59:09.845Z,11.00
2023-03-20T20:01:36.944Z,11.00
2023-03-20T20:04:04.096Z,11.10
2023-03-20T20:06:32.948Z,11.10
2023-03-20T20:09:01.328Z,11.10
2023-03-20T20:11:28.722Z,11.00
2023-03-20T20:14:14.600Z,11.20
2023-03-20T20:16:45.992Z,11.10
2023-03-20T20:19:14.346Z,11.00
2023-03-20T20:24:28.601Z,11.20
2023-03-20T20:27:15.252Z,11.10
2023-03-20T20:29:49.838Z,11.00
2023-03-20T20:32:19.823Z,11.00
2023-03-20T20:38:30.824Z,11.10
2023-03-20T20:40:26.907Z,11.10
2023-03-20T20:43:01.456Z,11.10
2023-03-20T20:45:31.515Z,11.00
2023-03-20T20:47:59.656Z,11.00
2023-03-20T20:50:29.350Z,11.00
2023-03-20T20:52:56.786Z,11.00
2023-03-20T20:55:24.976Z,11.00
2023-03-20T20:57:56.232Z,11.20
2023-03-20T21:00:37.230Z,11.40
2023-03-20T21:03:12.289Z,11.30
2023-03-20T21:05:42.950Z,11.30
2023-03-20T21:08:11.996Z,11.20
2023-03-20T21:10:39.815Z,11.20
2023-03-20T21:13:08.295Z,11.30
2023-03-20T21:15:36.291Z,11.10
2023-03-20T21:18:03.668Z,11.30
2023-03-20T21:20:32.481Z,11.20
2023-03-20T21:22:59.507Z,11.30
2023-03-20T21:25:39.663Z,11.30
2023-03-20T21:28:11.713Z,11.20
2023-03-20T21:31:09.154Z,11.10
2023-03-20T21:33:29.423Z,11.20
2023-03-20T21:35:56.497Z,11.10
2023-03-20T21:41:11.434Z,10.90
2023-03-20T21:43:40.060Z,10.90
2023-03-20T21:55:12.906Z,10.80
2023-03-20T22:02:57.099Z,11.00
2023-03-20T22:06:03.737Z,11.00
2023-03-20T22:11:44.228Z,11.00
2023-03-20T22:20:09.161Z,10.90
2023-03-20T22:25:39.211Z,10.90
2023-03-20T22:28:22.410Z,10.90
2023-03-20T22:31:19.352Z,10.90
2023-03-20T22:47:16.165Z,10.80
2023-03-20T22:49:43.123Z,10.90
2023-03-20T22:52:26.493Z,10.90
2023-03-20T22:54:58.611Z,10.90
2023-03-20T22:57:38.472Z,10.90
2023-03-20T23:00:10.473Z,10.80
2023-03-20T23:02:38.520Z,10.70
2023-03-20T23:05:06.098Z,10.70
2023-03-20T23:07:34.228Z,10.60
2023-03-20T23:10:01.184Z,10.50
2023-03-20T23:12:28.137Z,10.50
2023-03-20T23:14:55.584Z,10.40
2023-03-20T23:17:22.958Z,10.40
2023-03-20T23:19:54.341Z,10.50
2023-03-20T23:22:30.108Z,10.60
2023-03-20T23:24:59.907Z,10.50
2023-03-20T23:27:30.178Z,10.50
2023-03-20T23:29:57.208Z,10.50
2023-03-20T23:32:25.339Z,10.30
2023-03-20T23:34:52.369Z,10.30
2023-03-20T23:37:19.329Z,10.20
2023-03-20T23:39:46.320Z,10.20
2023-03-20T23:42:29.355Z,10.10
2023-03-20T23:45:00.377Z,10.10
2023-03-20T23:47:44.891Z,10.10
2023-03-20T23:53:13.158Z,10.00
2023-03-20T23:55:47.426Z,10.10
2023-03-20T23:58:14.606Z,10.10
